Pond: Past 24 Hour Conditions

 

Hall Beach Airport

10:00 AM EDT 24 October 2014
This table is a summary of hourly weather conditions for the past 24 hours.
Date / Time
(EDT)
Wind(knots) Conditions Visibility(km) Pressure(kPa) Air tempC) Relative humidity(%) Dew pointC) Wind Chill
24 October 2014
10:00 WNW 6 Drifting Snow 24 102.5 -19 86 -21 -27
9:00 NW 18 Drifting Snow 24 102.5 -18 86 -20 -31
8:00 NW 21 Drifting Snow 19 102.4 -18 87 -20 -32
7:00 WNW 12 Clear 16 102.5 -19 86 -21 -29
6:00 NW 15 gust 20 Clear 16 102.5 -18 85 -20 -29
5:00 NW 21 Clear 16 102.4 -17 87 -19 -30
4:00 NW 21 Mist 6 102.4 -16 87 -18 -29
3:00 NW 22 Clear 16 102.4 -17 87 -18 -30
2:00 NW 20 gust 28 Mist 10 102.3 -16 86 -18 -28
1:00 NW 23 gust 29 Mist 4 102.3 -15 86 -17 -28
0:00 WNW 20 Mostly Cloudy 13 102.3 -16 87 -17 -28
23 October 2014
23:00 WNW 22 gust 28 Light Snow 6 102.2 -16 86 -17 -28
22:00 NW 23 gust 28 Mist 5 102.2 -16 87 -18 -29
21:00 WNW 20 Mostly Cloudy 15 102.2 -15 87 -17 -27
20:00 WNW 19 Ice Crystals 16 102.2 -15 86 -17 -26
19:00 WNW 23 Ice Crystals 5 102.1 -15 86 -17 -27
18:00 NW 22 Ice Crystals 10 102.1 -14 86 -16 -27
17:00 NW 22 Blowing Snow 4 102.1 -15 88 -17 -27
16:00 NW 19 Blowing Snow 10 102.0 -15 86 -17 -27
15:00 NW 27 gust 32 Light Snow 2 102.0 -15 84 -17 -29
14:00 WNW 28 Light Snow 1 101.9 -15 87 -17 -29
13:00 WNW 24 Light Snow 8 101.9 -15 86 -17 -28
12:00 WNW 24 Light Snow 2 101.9 -16 87 -17 -29
11:00 WNW 25 gust 30 Light Snow 2 101.9 -16 88 -18 -30
10:00 WNW 27 gust 33 Light Snow 1 101.9 -16 87 -18 -30
 
Map of Arctic - Eastern Arctic marine weather areas Baker Lake Airport Chesterfield Inlet Airport Coral Harbour Airport Gjoa Haven Airport Kugaaruk Airport Rankin Inlet Airport Shepherd Bay Airport Whale Cove Airport Arctic Bay Brevoort Island Qikiqtarjuaq Airport Cape Dorset Airport Cape Dyer Cape Hooper Clyde Airport Grise Fiord Airport Hall Beach Airport Igloolik Airport Iqaluit Airport Longstaff Bluff Pangnirtung Airport Pond Inlet Airport Repulse Bay Airport Resolute Airport Resolution Island Rowley Island Airport Taloyoak Airport Wager Bay Akulivik Airport Ivujivik Airport Puvirnituq Airport Kangiqsujuaq Airport Kangirsuk Airport Quaqtaq Airport Tasiujaq Airport Cape Kakkiviak Cape Kiglapait Nain Airport Saglek Cape Mercy Kimmirut Airport Aupaluk Airport Salluit Airport Kangiqsualujjuaq Airport Fort Ross
Legend: buoyBuoy land stationLand Station